Latest Weather Observations for Brisbane

IDQ60901

Issued at 9:01 am EST Sunday 31 May 2015 (issued every 10 minutes, with the page automatically refreshed every 10 minutes)

About weather observations | Map of Brisbane area stations | Latest observations for Brisbane area | Other Formats
Station Details ID: 040913 Name: BRISBANE Lat: -27.48 Lon: 153.04 Height: 8.13 m
Data from the previous 72 hours. | See also: Recent months at Brisbane
Date/Time
EST
Tmp

°C
App
Tmp
°C
Dew
Point
°C
Rel
Hum
%
Delta-T

°C
Wind Press
QNH
hPa
Press
MSL
hPa
Rain
since
9 am
mm
Dir
 
Spd
km/h
Gust
km/h
Spd
kts
Gust
kts
31/09:00am 20.2 22.5 16.8 81 2.1 CALM 0 0 0 0 1018.5 1018.5 0.0
31/08:30am 19.8 22.0 17.4 86 1.5 SE 2 4 1 2 1018.3 1018.3 0.0
31/08:00am 18.5 20.5 17.0 91 0.9 SE 2 4 1 2 1018.7 1018.7 0.0
31/07:30am 17.5 19.8 16.7 95 0.5 CALM 0 0 0 0 1018.3 1018.3 0.0
31/07:00am 16.5 18.4 15.7 95 0.5 CALM 0 0 0 0 1018.1 1018.1 0.0
31/06:30am 16.3 18.0 15.2 93 0.6 CALM 0 0 0 0 1018.1 1018.1 0.0
31/06:00am 16.7 18.2 15.7 94 0.6 SSW 2 4 1 2 1017.7 1017.7 0.0
31/05:30am 16.7 18.5 15.6 93 0.6 CALM 0 0 0 0 1017.4 1017.4 0.0
31/05:00am 16.8 18.7 15.7 93 0.6 CALM 0 2 0 1 1017.3 1017.3 0.0
31/04:30am 17.0 19.0 15.9 93 0.6 CALM 0 0 0 0 1017.0 1017.0 0.0
31/04:00am 17.4 19.5 16.3 93 0.7 CALM 0 2 0 1 1017.2 1017.2 0.0
31/03:30am 17.3 19.4 16.2 93 0.7 CALM 0 0 0 0 1017.2 1017.2 0.0
31/03:00am 17.3 19.4 16.2 93 0.7 CALM 0 0 0 0 1017.0 1017.0 0.0
31/02:30am 17.7 19.7 16.9 95 0.5 SW 2 6 1 3 1017.1 1017.1 0.0
31/02:00am 17.3 19.4 16.3 94 0.6 CALM 0 0 0 0 1017.3 1017.3 0.0
31/01:30am 17.6 19.8 16.6 94 0.6 CALM 0 0 0 0 1017.7 1017.7 0.0
31/01:00am 18.0 20.4 16.9 93 0.7 CALM 0 0 0 0 1017.9 1017.9 0.0
31/12:30am 18.3 20.7 17.0 92 0.8 CALM 0 0 0 0 1018.0 1018.0 0.0
31/12:00am 18.8 21.4 17.5 92 0.8 CALM 0 4 0 2 1018.2 1018.2 0.0
 
Date/Time
EST
Tmp

°C
App
Tmp
°C
Dew
Point
°C
Rel
Hum
%
Delta-T

°C
Wind Press
QNH
hPa
Press
MSL
hPa
Rain
since
9 am
mm
Dir
 
Spd
km/h
Gust
km/h
Spd
kts
Gust
kts
30/11:30pm 19.2 21.2 17.9 92 0.8 ENE 4 4 2 2 1018.4 1018.4 0.0
30/11:00pm 19.3 21.9 17.6 90 1.0 CALM 0 4 0 2 1018.7 1018.7 0.0
30/10:30pm 19.7 21.8 18.0 90 1.0 ENE 4 6 2 3 1018.9 1018.9 0.0
30/10:00pm 19.9 21.9 17.9 88 1.2 ENE 4 6 2 3 1019.2 1019.2 0.0
30/09:30pm 20.2 22.4 17.4 84 1.7 NE 2 4 1 2 1019.2 1019.2 0.0
30/09:00pm 20.7 22.7 17.9 84 1.7 NNE 4 9 2 5 1019.2 1019.2 0.0
30/08:30pm 20.5 22.3 17.3 82 2.0 NNE 4 9 2 5 1019.1 1019.1 0.0
30/08:00pm 20.0 21.7 16.2 79 2.3 NE 2 4 1 2 1019.3 1019.3 0.0
30/07:30pm 20.6 21.9 16.2 76 2.6 NNE 4 7 2 4 1019.3 1019.3 0.0
30/07:00pm 20.0 21.6 16.0 78 2.4 NNE 2 4 1 2 1019.3 1019.3 0.0
30/06:30pm 20.8 22.5 16.2 75 2.8 NNE 2 4 1 2 1019.2 1019.2 0.0
30/06:00pm 20.9 22.5 15.9 73 3.0 N 2 4 1 2 1019.0 1019.0 0.0
30/05:30pm 21.7 22.9 16.0 70 3.4 NE 4 7 2 4 1018.7 1018.7 0.0
30/05:00pm 22.7 23.9 16.0 66 4.0 N 4 6 2 3 1018.6 1018.6 0.0
30/04:30pm 24.0 25.2 16.0 61 4.9 NNE 4 7 2 4 1018.3 1018.3 0.0
30/04:00pm 25.1 26.2 16.5 59 5.3 NE 6 9 3 5 1018.1 1018.1 0.0
30/03:30pm 25.9 27.3 17.3 59 5.4 NE 6 7 3 4 1018.1 1018.1 0.0
30/03:00pm 25.4 26.9 15.7 55 5.9 NE 2 4 1 2 1018.1 1018.1 0.0
30/02:30pm 27.1 28.9 16.4 52 6.6 NE 2 6 1 3 1018.0 1018.0 0.0
30/02:00pm 26.9 28.0 15.6 50 6.9 SSW 4 7 2 4 1018.3 1018.3 0.0
30/01:30pm 26.9 28.6 16.2 52 6.6 WSW 2 7 1 4 1018.7 1018.7 0.0
30/01:00pm 26.7 28.4 16.3 53 6.4 NNW 2 6 1 3 1019.1 1019.1 0.0
30/12:30pm 26.0 27.2 16.0 54 6.1 NNW 4 9 2 5 1019.7 1019.7 0.0
30/12:00pm 25.1 26.3 16.0 57 5.5 E 4 6 2 3 1020.0 1020.0 0.0
30/11:30am 24.9 26.9 16.9 61 4.9 W 2 7 1 4 1020.5 1020.5 0.0
30/11:00am 23.4 24.5 15.7 62 4.6 S 4 9 2 5 1021.5 1021.5 0.0
30/10:30am 22.9 24.7 16.4 67 4.0 WNW 2 4 1 2 1022.2 1022.2 0.0
30/10:00am 21.5 23.1 16.9 75 2.8 W 4 6 2 3 1022.7 1022.7 0.0
30/09:30am 19.9 21.6 16.2 79 2.2 WSW 2 6 1 3 1022.9 1022.9 0.0
30/09:00am 18.3 19.8 15.6 84 1.6 SW 2 6 1 3 1023.0 1023.0 0.0
30/08:30am 17.6 18.6 15.4 87 1.3 SW 4 6 2 3 1022.8 1022.8 0.0
30/08:00am 17.1 18.5 15.4 90 1.0 SW 2 4 1 2 1023.0 1023.0 0.0
30/07:30am 15.9 17.1 14.8 93 0.6 WSW 2 4 1 2 1022.7 1022.7 0.0
30/07:00am 15.4 16.1 14.4 94 0.6 WSW 4 6 2 3 1022.5 1022.5 0.0
30/06:30am 15.5 16.6 14.5 94 0.6 WSW 2 4 1 2 1022.2 1022.2 0.0
30/06:00am 15.7 16.9 14.9 95 0.5 SW 2 6 1 3 1021.7 1021.7 0.0
30/05:30am 15.8 17.0 15.0 95 0.5 WSW 2 6 1 3 1021.3 1021.3 0.0
30/05:00am 16.1 17.2 15.5 96 0.3 SW 4 6 2 3 1021.2 1021.2 0.0
30/04:30am 16.3 17.8 15.7 96 0.4 SW 2 6 1 3 1021.1 1021.1 0.0
30/04:00am 16.6 17.9 16.1 97 0.3 SW 4 9 2 5 1021.3 1021.3 0.0
30/03:30am 16.3 17.8 15.8 97 0.3 SSW 2 4 1 2 1021.3 1021.3 0.0
30/03:00am 15.9 17.2 15.1 95 0.5 SW 2 4 1 2 1021.1 1021.1 0.0
30/02:30am 16.1 17.8 15.3 95 0.5 CALM 0 0 0 0 1021.2 1021.2 0.0
30/02:00am 16.6 18.4 15.6 94 0.6 CALM 0 0 0 0 1021.3 1021.3 0.0
30/01:30am 17.0 19.0 16.0 94 0.6 CALM 0 0 0 0 1021.7 1021.7 0.0
30/01:00am 17.8 19.5 17.2 96 0.4 SW 4 7 2 4 1022.1 1022.1 0.0
30/12:30am 17.3 19.6 16.7 96 0.4 CALM 0 0 0 0 1021.9 1021.9 0.0
30/12:00am 17.1 19.1 16.1 94 0.6 CALM 0 0 0 0 1022.2 1022.2 0.0
 
Date/Time
EST
Tmp

°C
App
Tmp
°C
Dew
Point
°C
Rel
Hum
%
Delta-T

°C
Wind Press
QNH
hPa
Press
MSL
hPa
Rain
since
9 am
mm
Dir
 
Spd
km/h
Gust
km/h
Spd
kts
Gust
kts
29/11:30pm 17.4 19.6 16.4 94 0.6 CALM 0 0 0 0 1022.5 1022.5 0.0
29/11:00pm 17.9 20.3 17.1 95 0.5 CALM 0 0 0 0 1022.5 1022.5 0.0
29/10:30pm 18.2 20.2 16.9 92 0.8 NE 2 4 1 2 1022.6 1022.6 0.0
29/10:00pm 18.8 20.9 17.3 91 0.9 NE 2 4 1 2 1022.7 1022.7 0.0
29/09:30pm 19.1 21.7 17.4 90 1.0 CALM 0 2 0 1 1022.7 1022.7 0.0
29/09:00pm 19.6 21.8 18.3 92 0.8 ENE 4 6 2 3 1022.6 1022.6 0.0
29/08:30pm 19.0 21.7 17.7 92 0.8 CALM 0 2 0 1 1022.7 1022.7 0.0
29/08:00pm 18.8 21.2 17.1 90 1.0 CALM 0 0 0 0 1022.9 1022.9 0.0
29/07:30pm 18.9 21.3 16.9 88 1.2 CALM 0 0 0 0 1022.8 1022.8 0.0
29/07:00pm 19.7 21.6 17.7 88 1.2 ENE 4 6 2 3 1022.5 1022.5 0.0
29/06:30pm 19.8 21.5 17.2 85 1.6 NE 4 6 2 3 1022.3 1022.3 0.0
29/06:00pm 20.3 22.1 17.3 83 1.8 ENE 4 6 2 3 1022.1 1022.1 0.0
29/05:30pm 21.0 22.3 17.2 79 2.3 NE 6 9 3 5 1021.8 1021.8 0.0
29/05:00pm 21.6 22.9 17.0 75 2.8 NE 6 9 3 5 1021.5 1021.5 0.0
29/04:30pm 22.7 23.7 16.9 70 3.6 NE 7 13 4 7 1021.5 1021.5 0.0
29/04:00pm 23.6 24.6 16.9 66 4.1 NE 7 11 4 6 1021.4 1021.4 0.0
29/03:30pm 25.1 26.3 16.0 57 5.5 WNW 4 7 2 4 1021.5 1021.5 0.0
29/03:00pm 25.2 27.1 16.6 59 5.3 SE 2 4 1 2 1021.2 1021.2 0.0
29/02:30pm 24.3 26.0 16.3 61 4.9 SSE 2 6 1 3 1021.1 1021.1 0.0
29/02:00pm 24.3 25.8 15.8 59 5.1 ENE 2 6 1 3 1021.2 1021.2 0.0
29/01:30pm 25.0 26.2 15.9 57 5.5 NNE 4 7 2 4 1021.1 1021.1 0.0
29/01:00pm 24.4 25.4 15.3 57 5.5 NE 4 6 2 3 1021.3 1021.3 0.0
29/12:30pm 23.4 24.5 15.5 61 4.7 W 4 7 2 4 1021.9 1021.9 0.0
29/12:00pm 23.0 24.0 15.3 62 4.6 SW 4 9 2 5 1022.8 1022.8 0.0
29/11:30am 22.1 23.0 15.0 64 4.2 SW 4 7 2 4 1023.1 1023.1 0.0
29/11:00am 21.4 22.1 15.5 69 3.5 WSW 6 9 3 5 1023.7 1023.7 0.0
29/10:30am 20.5 20.9 14.8 70 3.3 WSW 6 11 3 6 1024.1 1024.1 0.0
29/10:00am 19.4 19.5 14.4 73 2.9 SW 7 11 4 6 1024.3 1024.3 0.0
29/09:30am 18.5 18.7 14.2 76 2.5 SW 6 9 3 5 1024.6 1024.6 0.0
29/09:00am 17.6 17.8 14.3 81 1.9 WSW 6 9 3 5 1024.8 1024.8 0.0
29/08:30am 16.4 16.8 13.7 84 1.5 WSW 4 7 2 4 1024.7 1024.7 0.0
29/08:00am 15.5 15.8 13.5 88 1.1 WSW 4 6 2 3 1024.3 1024.3 0.0
29/07:30am 14.5 14.7 13.2 92 0.7 SW 4 6 2 3 1024.2 1024.2 0.0
29/07:00am 13.9 13.7 13.1 95 0.4 WSW 6 9 3 5 1024.1 1024.1 0.0
29/06:30am 13.4 13.8 12.6 95 0.4 WSW 2 6 1 3 1023.7 1023.7 0.0
29/06:00am 13.4 14.2 12.5 94 0.5 CALM 0 2 0 1 1023.5 1023.5 0.0
29/05:30am 13.8 14.4 13.0 95 0.4 SW 2 6 1 3 1023.7 1023.7 0.0
29/05:00am 13.9 13.7 13.1 95 0.4 WSW 6 9 3 5 1023.5 1023.5 0.0
29/04:30am 14.0 14.2 13.1 94 0.5 WSW 4 7 2 4 1023.2 1023.2 0.0
29/04:00am 14.2 14.4 13.2 94 0.5 WSW 4 6 2 3 1023.0 1023.0 0.0
29/03:30am 14.1 14.3 13.1 94 0.6 WSW 4 6 2 3 1023.2 1023.2 0.0
29/03:00am 14.4 15.1 13.4 94 0.6 SSW 2 6 1 3 1023.1 1023.1 0.0
29/02:30am 14.5 15.2 13.5 94 0.6 WSW 2 6 1 3 1023.4 1023.4 0.0
29/02:00am 14.7 15.9 13.7 94 0.6 CALM 0 4 0 2 1023.3 1023.3 0.0
29/01:30am 15.1 16.2 14.5 96 0.3 WSW 2 6 1 3 1023.3 1023.3 0.0
29/01:00am 15.1 16.2 14.5 96 0.3 WSW 2 4 1 2 1023.5 1023.5 0.0
29/12:30am 15.2 16.3 14.7 97 0.3 SW 2 4 1 2 1023.7 1023.7 0.0
29/12:00am 14.3 15.4 13.5 95 0.4 CALM 0 0 0 0 1023.8 1023.8 0.0
 
Date/Time
EST
Tmp

°C
App
Tmp
°C
Dew
Point
°C
Rel
Hum
%
Delta-T

°C
Wind Press
QNH
hPa
Press
MSL
hPa
Rain
since
9 am
mm
Dir
 
Spd
km/h
Gust
km/h
Spd
kts
Gust
kts
28/11:30pm 14.6 15.8 13.8 95 0.4 CALM 0 0 0 0 1024.1 1024.1 0.0
28/11:00pm 15.0 16.4 14.4 96 0.3 CALM 0 0 0 0 1024.0 1024.0 0.0
28/10:30pm 15.2 16.5 14.2 94 0.6 CALM 0 0 0 0 1024.2 1024.2 0.0
28/10:00pm 15.6 17.1 14.6 94 0.6 CALM 0 0 0 0 1024.0 1024.0 0.0
28/09:30pm 16.0 17.2 14.9 93 0.6 SSE 2 6 1 3 1024.0 1024.0 0.0
28/09:00pm 16.4 18.1 15.3 93 0.6 CALM 0 0 0 0 1024.2 1024.2 0.0
28/08:30pm 16.8 18.5 15.3 91 0.9 CALM 0 0 0 0 1024.0 1024.0 0.0
28/08:00pm 17.0 18.7 15.3 90 1.0 CALM 0 0 0 0 1023.8 1023.8 0.0
28/07:30pm 17.5 19.4 15.7 89 1.1 CALM 0 0 0 0 1023.6 1023.6 0.0
28/07:00pm 18.1 19.8 16.3 89 1.1 NNE 2 4 1 2 1023.4 1023.4 0.0
28/06:30pm 17.6 19.1 14.7 83 1.7 CALM 0 0 0 0 1023.3 1023.3 0.0
28/06:00pm 18.9 20.1 15.0 78 2.3 NE 2 6 1 3 1022.9 1022.9 0.0
28/05:30pm 19.5 20.4 13.9 70 3.2 NNE 2 6 1 3 1022.4 1022.4 0.0
28/05:00pm 20.6 21.0 13.6 64 4.0 N 4 7 2 4 1022.1 1022.1 0.0
28/04:30pm 21.8 22.2 13.7 60 4.7 N 4 9 2 5 1022.0 1022.0 0.0
28/04:00pm 22.4 23.2 14.8 62 4.5 NNE 4 7 2 4 1021.8 1021.8 0.0
28/03:30pm 22.5 22.9 13.6 57 5.2 ENE 4 6 2 3 1021.8 1021.8 0.0
28/03:00pm 24.4 25.3 13.0 49 6.6 CALM 0 4 0 2 1021.7 1021.7 0.0
28/02:30pm 23.9 23.8 12.2 48 6.7 SSW 4 7 2 4 1021.7 1021.7 0.0
28/02:00pm 23.7 23.0 12.0 48 6.6 WNW 7 11 4 6 1021.7 1021.7 0.0
28/01:30pm 24.1 24.5 13.6 52 6.1 WSW 4 9 2 5 1022.2 1022.2 0.0
28/01:00pm 23.5 24.0 13.9 55 5.6 NE 4 7 2 4 1022.3 1022.3 0.0
28/12:30pm 22.9 23.4 13.9 57 5.3 WNW 4 11 2 6 1023.3 1023.3 0.0
28/12:00pm 22.3 22.8 14.9 63 4.4 WSW 6 9 3 5 1023.7 1023.7 0.0
28/11:30am 21.4 21.8 14.8 66 3.9 SW 6 9 3 5 1024.2 1024.2 0.0
28/11:00am 20.8 21.4 15.4 71 3.2 SW 6 13 3 7 1024.6 1024.6 0.0
28/10:30am 19.9 20.2 15.1 74 2.8 WSW 7 15 4 8 1024.9 1024.9 0.0
28/10:00am 18.9 19.3 15.4 80 2.0 SW 7 13 4 7 1025.1 1025.1 0.0
28/09:30am 17.4 17.4 14.1 81 1.9 SW 7 13 4 7 1025.1 1025.1 0.0

Latest Capital City Observations: Canberra | Sydney | Melbourne | Brisbane | Adelaide | Perth | Hobart | Darwin

Other Formats:

Comma delimited format used in spreadsheet applications
http://www.bom.gov.au/fwo/IDQ60901/IDQ60901.94576.axf

JavaScript Object Notation format (JSON) in row-major order
http://www.bom.gov.au/fwo/IDQ60901/IDQ60901.94576.json